createdAt,value
2019-06-26T00:02:50.166Z,101415.48
2019-06-26T00:07:54.479Z,101418.92
2019-06-26T00:12:58.991Z,101417.98
2019-06-26T00:18:03.688Z,101419.46
2019-06-26T00:23:07.735Z,101422.38
2019-06-26T00:28:11.805Z,101414.14
2019-06-26T00:33:15.798Z,101414.25
2019-06-26T00:38:20.101Z,101410.28
2019-06-26T00:43:24.431Z,101409.55
2019-06-26T00:48:28.423Z,101407.98
2019-06-26T00:53:32.539Z,101402.35
2019-06-26T00:58:36.551Z,101411.83
2019-06-26T01:03:40.954Z,101413.42
2019-06-26T01:08:45.022Z,101407.44
2019-06-26T01:13:58.137Z,101411.30
2019-06-26T01:18:54.761Z,101411.70
2019-06-26T01:23:59.580Z,101413.13
2019-06-26T01:29:03.647Z,101407.58
2019-06-26T01:34:07.737Z,101404.13
2019-06-26T01:39:11.819Z,101400.80
2019-06-26T01:44:15.909Z,101418.01
2019-06-26T01:49:19.858Z,101405.78
2019-06-26T01:54:23.847Z,101411.81
2019-06-26T01:59:28.231Z,101408.91
2019-06-26T02:04:32.221Z,101404.20
2019-06-26T02:09:36.252Z,101407.70
2019-06-26T02:14:40.547Z,101407.16
2019-06-26T02:19:44.599Z,101402.25
2019-06-26T02:24:48.666Z,101399.34
2019-06-26T02:29:52.675Z,101384.40
2019-06-26T02:34:56.661Z,101386.69
2019-06-26T02:40:00.675Z,101380.84
2019-06-26T02:45:05.825Z,101368.09
2019-06-26T02:50:09.961Z,101369.22
2019-06-26T02:55:14.124Z,101366.92
2019-06-26T03:00:18.176Z,101355.44
2019-06-26T03:05:22.336Z,101359.55
2019-06-26T03:10:26.826Z,101360.30
2019-06-26T03:15:31.211Z,101365.53
2019-06-26T03:20:39.063Z,101360.23
2019-06-26T03:25:43.103Z,101364.02
2019-06-26T03:30:47.449Z,101368.55
2019-06-26T03:35:51.489Z,101374.47
2019-06-26T03:40:55.515Z,101380.41
2019-06-26T03:45:59.554Z,101389.81
2019-06-26T03:51:03.702Z,101396.52
2019-06-26T03:56:07.790Z,101402.44
2019-06-26T04:01:11.916Z,101404.43
2019-06-26T04:06:15.989Z,101406.69
2019-06-26T04:11:20.005Z,101404.29
2019-06-26T04:16:24.010Z,101407.63
2019-06-26T04:21:28.110Z,101403.77
2019-06-26T04:26:32.169Z,101399.24
2019-06-26T04:31:36.161Z,101395.70
2019-06-26T04:36:40.233Z,101403.26
2019-06-26T04:41:44.266Z,101401.38
2019-06-26T04:46:48.640Z,101413.42
2019-06-26T04:51:52.667Z,101414.81
2019-06-26T04:56:56.886Z,101408.85
2019-06-26T05:02:00.914Z,101410.80
2019-06-26T05:07:05.318Z,101410.03
2019-06-26T05:12:09.361Z,101409.78
2019-06-26T05:17:13.385Z,101407.53
2019-06-26T05:22:17.756Z,101405.70
2019-06-26T05:27:21.737Z,101408.36
2019-06-26T05:32:25.876Z,101405.55
2019-06-26T05:37:30.247Z,101410.77
2019-06-26T05:42:34.597Z,101413.59
2019-06-26T05:47:38.624Z,101406.95
2019-06-26T05:52:43.332Z,101406.91
2019-06-26T05:57:48.622Z,101407.31
2019-06-26T06:02:53.953Z,101413.84
2019-06-26T06:07:58.297Z,101407.22
2019-06-26T06:13:02.499Z,101408.96
2019-06-26T06:18:06.532Z,101416.98
2019-06-26T06:23:14.793Z,101409.71
2019-06-26T06:28:19.249Z,101418.22
2019-06-26T06:33:23.638Z,101418.97
2019-06-26T06:38:28.041Z,101420.89
2019-06-26T06:43:32.090Z,101423.05
2019-06-26T06:48:36.388Z,101424.63
2019-06-26T06:53:40.419Z,101420.94
2019-06-26T06:58:44.457Z,101416.52
2019-06-26T07:03:48.940Z,101415.01
2019-06-26T07:08:52.924Z,101422.47
2019-06-26T07:13:57.020Z,101431.17
2019-06-26T07:19:01.066Z,101427.77
2019-06-26T07:24:05.277Z,101420.30
2019-06-26T07:29:09.365Z,101429.41
2019-06-26T07:34:13.410Z,101417.91
2019-06-26T07:39:17.515Z,101423.92
2019-06-26T07:44:21.866Z,101427.23
2019-06-26T07:49:26.368Z,101418.96
2019-06-26T07:54:30.480Z,101427.91
2019-06-26T07:59:35.012Z,101420.86
2019-06-26T08:04:39.035Z,101424.06
2019-06-26T08:09:43.099Z,101420.00
2019-06-26T08:14:47.587Z,101423.78
2019-06-26T08:19:52.012Z,101435.44
2019-06-26T08:24:56.100Z,101429.22
2019-06-26T08:30:00.170Z,101423.19
2019-06-26T08:35:04.370Z,101428.80
2019-06-26T08:40:08.806Z,101431.54
2019-06-26T08:45:13.158Z,101431.88
2019-06-26T08:50:26.472Z,101428.26
2019-06-26T08:55:30.478Z,101426.87
2019-06-26T09:00:34.518Z,101431.20
2019-06-26T09:05:48.088Z,101426.48
2019-06-26T09:10:45.294Z,101421.61
2019-06-26T09:15:50.372Z,101418.69
2019-06-26T09:20:54.595Z,101415.15
2019-06-26T09:25:59.025Z,101426.86
2019-06-26T09:31:04.592Z,101415.85
2019-06-26T09:36:08.778Z,101415.28
2019-06-26T09:41:13.269Z,101410.19
2019-06-26T09:46:17.784Z,101401.54
2019-06-26T09:51:21.835Z,101401.53
2019-06-26T09:56:26.410Z,101401.48
2019-06-26T10:01:30.570Z,101395.97
2019-06-26T10:06:34.662Z,101390.30
2019-06-26T10:11:42.741Z,101383.91
2019-06-26T10:16:53.038Z,101391.62
2019-06-26T10:22:09.778Z,101398.60
2019-06-26T10:27:14.355Z,101386.61
2019-06-26T10:32:20.215Z,101381.77
2019-06-26T10:37:24.164Z,101389.72
2019-06-26T10:42:28.328Z,101397.29
2019-06-26T10:47:33.079Z,101382.81
2019-06-26T10:52:37.613Z,101378.50
2019-06-26T10:57:42.851Z,101382.32
2019-06-26T11:02:46.905Z,101378.84
2019-06-26T11:07:51.321Z,101372.81
2019-06-26T11:12:55.414Z,101363.23
2019-06-26T11:17:59.891Z,101357.73
2019-06-26T11:23:04.080Z,101360.81
2019-06-26T11:28:26.357Z,101356.94
2019-06-26T11:33:48.640Z,101346.73
2019-06-26T11:38:52.658Z,101349.80
2019-06-26T11:43:56.693Z,101342.86
2019-06-26T11:49:02.032Z,101337.41
2019-06-26T11:54:06.398Z,101341.94
2019-06-26T11:59:10.515Z,101333.68
2019-06-26T12:04:14.646Z,101330.42
2019-06-26T12:09:19.204Z,101324.29
2019-06-26T12:14:23.237Z,101336.66
2019-06-26T12:19:27.271Z,101330.83
2019-06-26T12:24:32.378Z,101350.60
2019-06-26T12:29:36.807Z,101340.92
2019-06-26T12:34:44.964Z,101333.33
2019-06-26T12:39:47.218Z,101329.46
2019-06-26T12:44:51.252Z,101333.28
2019-06-26T12:49:55.623Z,101332.46
2019-06-26T12:54:59.799Z,101323.46
2019-06-26T13:00:05.483Z,101330.72
2019-06-26T13:05:11.445Z,101334.87
2019-06-26T13:10:16.412Z,101335.66
2019-06-26T13:15:20.597Z,101334.07
2019-06-26T13:20:24.697Z,101332.53
2019-06-26T13:25:28.743Z,101334.36
2019-06-26T13:30:36.909Z,101327.66
2019-06-26T13:35:40.911Z,101313.66
2019-06-26T13:40:45.278Z,101319.50
2019-06-26T13:45:49.446Z,101323.70
2019-06-26T13:51:08.246Z,101313.71
2019-06-26T13:55:59.412Z,101333.61
2019-06-26T14:01:04.007Z,101311.16
2019-06-26T14:06:08.674Z,101309.46
2019-06-26T14:11:12.825Z,101307.48
2019-06-26T14:16:19.859Z,101299.55
2019-06-26T14:21:25.947Z,101293.76
2019-06-26T14:26:30.782Z,101295.03
2019-06-26T14:31:35.541Z,101293.16
2019-06-26T14:36:39.795Z,101285.02
2019-06-26T14:41:44.103Z,101288.47
2019-06-26T14:46:49.543Z,101294.22
2019-06-26T14:51:53.939Z,101291.11
2019-06-26T14:56:58.987Z,101297.98
2019-06-26T15:02:03.104Z,101284.46
2019-06-26T15:07:07.147Z,101283.81
2019-06-26T15:12:11.340Z,101274.87
2019-06-26T15:17:15.353Z,101283.26
2019-06-26T15:22:19.490Z,101276.78
2019-06-26T15:27:24.157Z,101279.45
2019-06-26T15:32:29.363Z,101279.68
2019-06-26T15:37:33.843Z,101266.61
2019-06-26T15:42:37.883Z,101261.39
2019-06-26T15:47:41.975Z,101257.77
2019-06-26T15:52:46.553Z,101258.23
2019-06-26T15:57:50.599Z,101259.78
2019-06-26T16:02:54.573Z,101253.47
2019-06-26T16:07:58.683Z,101256.27
2019-06-26T16:13:02.715Z,101256.56
2019-06-26T16:18:06.747Z,101275.55
2019-06-26T16:23:10.823Z,101262.34
2019-06-26T16:28:15.149Z,101265.39
2019-06-26T16:33:19.212Z,101280.25
2019-06-26T16:38:23.211Z,101279.27
2019-06-26T16:43:27.217Z,101277.28
2019-06-26T16:48:31.251Z,101280.94
2019-06-26T16:53:35.785Z,101295.25
2019-06-26T16:58:40.595Z,101288.27
2019-06-26T17:03:44.863Z,101290.67
2019-06-26T17:08:48.976Z,101293.26
2019-06-26T17:13:53.249Z,101318.92
2019-06-26T17:18:57.326Z,101311.98
2019-06-26T17:24:06.457Z,101306.95
2019-06-26T17:29:10.695Z,101324.77
2019-06-26T17:34:14.784Z,101331.86
2019-06-26T17:39:18.916Z,101325.96
2019-06-26T17:44:23.127Z,101326.53
2019-06-26T17:49:27.561Z,101342.33
2019-06-26T17:54:31.994Z,101341.08
2019-06-26T17:59:36.119Z,101340.41
2019-06-26T18:04:40.731Z,101346.51
2019-06-26T18:10:03.637Z,101354.52
2019-06-26T18:15:08.699Z,101364.28
2019-06-26T18:20:13.558Z,101370.93
2019-06-26T18:25:17.886Z,101359.30
2019-06-26T18:30:23.026Z,101371.24
2019-06-26T18:35:27.639Z,101378.29
2019-06-26T18:40:31.732Z,101390.16
2019-06-26T18:45:35.861Z,101391.18
2019-06-26T18:50:39.896Z,101407.34
2019-06-26T18:55:44.649Z,101406.09
2019-06-26T19:00:54.793Z,101413.11
2019-06-26T19:05:58.827Z,101421.22
2019-06-26T19:11:03.106Z,101423.98
2019-06-26T19:16:15.651Z,101434.77
2019-06-26T19:21:20.689Z,101449.33
2019-06-26T19:26:24.881Z,101452.89
2019-06-26T19:31:28.970Z,101461.38
2019-06-26T19:36:48.786Z,101469.79
2019-06-26T19:41:38.750Z,101470.00
2019-06-26T19:46:43.497Z,101485.02
2019-06-26T19:51:47.686Z,101476.11
2019-06-26T19:56:51.836Z,101488.38
2019-06-26T20:01:58.323Z,101490.37
2019-06-26T20:07:02.785Z,101497.19
2019-06-26T20:12:06.873Z,101495.31
2019-06-26T20:17:12.191Z,101496.37
2019-06-26T20:22:17.609Z,101506.38
2019-06-26T20:27:24.040Z,101507.53
2019-06-26T20:32:29.455Z,101509.89
2019-06-26T20:37:33.695Z,101515.48
2019-06-26T20:42:37.926Z,101519.19
2019-06-26T20:47:42.767Z,101518.89
2019-06-26T20:52:47.734Z,101522.52
2019-06-26T20:57:51.798Z,101540.34
2019-06-26T21:02:55.850Z,101541.03
2019-06-26T21:07:59.891Z,101547.77
2019-06-26T21:13:03.912Z,101549.04
2019-06-26T21:18:09.566Z,101553.30
2019-06-26T21:23:19.029Z,101561.34
2019-06-26T21:28:20.012Z,101563.49
2019-06-26T21:33:24.014Z,101567.19
2019-06-26T21:38:28.140Z,101566.09
2019-06-26T21:43:32.199Z,101581.86
2019-06-26T21:48:36.255Z,101579.00
2019-06-26T21:53:40.331Z,101594.46
2019-06-26T21:58:44.462Z,101592.31
2019-06-26T22:03:48.774Z,101595.45
2019-06-26T22:08:52.983Z,101606.97
2019-06-26T22:13:57.102Z,101613.36
2019-06-26T22:19:01.179Z,101613.08
2019-06-26T22:24:05.232Z,101618.28
2019-06-26T22:29:09.370Z,101622.03
2019-06-26T22:34:13.417Z,101627.83
2019-06-26T22:39:17.718Z,101630.75
2019-06-26T22:44:22.089Z,101636.98
2019-06-26T22:49:26.143Z,101634.45
2019-06-26T22:54:30.199Z,101635.93
2019-06-26T22:59:34.249Z,101638.72
2019-06-26T23:04:38.585Z,101640.92
2019-06-26T23:09:42.599Z,101646.13
2019-06-26T23:14:47.503Z,101658.32
2019-06-26T23:19:51.791Z,101662.41
2019-06-26T23:24:55.886Z,101667.52
2019-06-26T23:29:59.893Z,101661.41
2019-06-26T23:35:04.045Z,101675.69
2019-06-26T23:40:08.191Z,101672.32
2019-06-26T23:45:12.478Z,101686.88
2019-06-26T23:50:17.060Z,101692.83
2019-06-26T23:55:21.466Z,101704.96
